Etusivu
METAR-TAF:

METAR-TAF

Lentoasemat :

Adrian, Michigan, Yhdysvallat

Leveyspiiri: 41-52-04N, Pituuspiiri: 084-04-46W, korkeus merenpinnasta: 244 m

Tämänhetkinen sää

Tämä raportti tehtiin 15 minuuttia sitten, kello 16.53 UTC
Tuuli 12 kn idästä/koillisesta
Lämpötila 17°C
Kosteus 88%
Ilmanpaine 1002 hPa
Näkyvyys: 16.1 km
Muutamia pilviä 1000 ft:n korkeudessa
Hajonneita pilviä 1500 ft:n korkeudessa
Pilvistä 2100 ft:n korkeudessa

METAR: KADG 201653Z AUTO 07012KT 10SM FEW010 BKN015 OVC021 17/15 A2959 RMK AO2 RAE08 SLP018 P0000 T01720150 TSNO

Aika: 13:08 (17:08 UTC)


TAF: puuttuu

Säähavainnot ja -ennusteet yli 4000 lentoasemalta (METAR- ja TAF-raportit).

Käytössä olevat sääasemat on merkitty karttaan keltaisilla ja punaisilla pisteillä.

Aseta hiiri pisteen päälle nähdäksesi sääaseman nimen.

Klikkaa sitten nähdäksesi säähavainnot ja -ennusteet.

Kartan vaihtaminen: klikkaa mustalla rastilla varustettuja vihreitä pisteitä, niin voit zoomata sisään; viivalla varustettua vihreää pistettä, niin voit zoomata ulos tai vihreitä nuolia, niin pääset viereisille kartoille.


METAR-TAF: